الصفحة الرئيسية
METAR-TAF:

METAR-TAF

مطار :

مطار فاليولو الدولي

أبيا, Upolu, ساموا

دائرة عرض: 13-49S, خط طول: 172-00W, ارتفاع: 5 متر

مراقبة الطقس الحالي

تاريخ ووقت الإصدار 41 دقيقة قبل الساعة 06:00UTC
ريح 5 عقدة من الشمال/الشمال الشرقي
درجة الحرارة 28°درجة مئوية
الرطوبة 79%
ضغط 1010 hPa
الرؤية 10 كم أو أكثر
غيوم قليلة على ارتفاع 2000 قدم, مزنة ركامية.
غيوم قليلة على ارتفاع 2300 قدم

METAR: NSFA 310600Z 03005KT 9999 FEW020CB FEW023 28/24 Q1010 RMK CB TO

زمن: 20:41 (06:41 UTC)

توقعات

تاريخ ووقت الإصدار 1ساعة و 31 دقيقة قبل الساعة 05:10UTC
التوقعات صالحة من31 الساعة 06 UTC إلى 01 الساعة 06 UTC
ريح 6 عقدة من الشمال/الشمال الشرقي
الرؤية 10 كم أو أكثر
غيوم متفرقة على ارتفاع 2300 قدم

TAF: NSFA 310510Z 3106/0106 02006KT 9999 SCT023

أرصاد الطقس والتوقعات من أكثر من 4000 مطار (تقارير الطقس للمطار METAR والتنبؤ بالطقس بالمطارTAF).

المحطات المتاحة هي النقط الصفراء والحمراء على الخريطة.

حرك المؤشر فوق النقطة لمعرفة اسم المحطة.

ثم انقر لمعرفة أرصاد وتوقعات الطقس.

لتغيير الخارطة: اضغط على الأزرار الخضراء مع رمز الصليب الأسود للتكبير. على الزر الأخضر مع شرطة للتصغير، أو على الأسهم الخضراء للخرائط المجاورة.


METAR-TAF: